Terminal Aerodrome Forecast
Issued by NWS Grand Forks, ND

Home | Current Version | Previous Version | Graphics & Text | Print | Product List | Glossary On
Versions: 1 2 3 4 5 6 7 8 9 10 11 12 13 14 15 16 17 18
000
FTUS43 KFGF 221952 AAA
TAFFAR
TAF AMD
KFAR 221952Z 2220/2318 35015KT 3SM BR OVC008
      TEMPO 2220/2222 35015G25KT 1/2SM -SN FG OVC003
     FM222200 36014KT 1/2SM FG OVC008
      TEMPO 2222/2223 3SM -SN OVC003
     FM230000 36013KT 3/4SM BR OVC015=

USA.gov is the U.S. government's official web portal to all federal, state and local government web resources and services.